Time,TemperatureF,DewpointF,PressureIn,WindDirection,WindDirectionDegrees,WindSpeedMPH,WindSpeedGustMPH,Humidity,HourlyPrecipIn,Conditions,Clouds,dailyrainin,SoftwareType,DateUTC
2015-05-27 00:00:00,70.0,-23.0,28.68,East,90,0.0,4.0,0,0.00,,,0.00,Rainwise IP-100,2015-05-27 04:00:00,
2015-05-27 00:05:00,70.0,-23.0,28.67,NE,45,4.0,4.0,0,0.00,,,0.00,Rainwise IP-100,2015-05-27 04:05:00,
2015-05-27 00:10:00,70.0,-23.0,28.67,East,90,0.0,5.0,0,0.00,,,0.00,Rainwise IP-100,2015-05-27 04:10:00,
2015-05-27 00:15:00,70.0,-23.0,28.67,East,90,1.0,3.0,0,0.00,,,0.00,Rainwise IP-100,2015-05-27 04:15:00,
2015-05-27 00:20:00,69.0,-23.0,28.67,East,90,0.0,3.0,0,0.00,,,0.00,Rainwise IP-100,2015-05-27 04:20:00,
2015-05-27 00:25:00,70.0,-23.0,28.67,East,90,0.0,3.0,0,0.00,,,0.00,Rainwise IP-100,2015-05-27 04:25:00,
2015-05-27 00:30:00,69.0,-23.0,28.67,East,90,0.0,0.0,0,0.00,,,0.00,Rainwise IP-100,2015-05-27 04:30:00,
2015-05-27 00:36:00,69.0,-23.0,28.67,East,90,0.0,0.0,0,0.00,,,0.00,Rainwise IP-100,2015-05-27 04:36:00,
2015-05-27 00:41:00,69.0,-23.0,28.67,East,90,0.0,0.0,0,0.00,,,0.00,Rainwise IP-100,2015-05-27 04:41:00,
2015-05-27 00:46:00,69.0,-23.0,28.67,East,90,0.0,0.0,0,0.00,,,0.00,Rainwise IP-100,2015-05-27 04:46:00,
2015-05-27 00:51:00,69.0,-23.0,28.67,East,90,0.0,1.0,0,0.00,,,0.00,Rainwise IP-100,2015-05-27 04:51:00,
2015-05-27 00:56:00,69.0,-23.0,28.66,East,90,0.0,0.0,0,0.00,,,0.00,Rainwise IP-100,2015-05-27 04:56:00,
2015-05-27 01:01:00,69.0,-23.0,28.66,ENE,67,0.0,0.0,0,0.00,,,0.00,Rainwise IP-100,2015-05-27 05:01:00,
2015-05-27 01:06:00,69.0,-23.0,28.66,ENE,67,0.0,0.0,0,0.00,,,0.00,Rainwise IP-100,2015-05-27 05:06:00,
2015-05-27 01:11:00,68.0,-23.0,28.66,ENE,67,0.0,0.0,0,0.00,,,0.00,Rainwise IP-100,2015-05-27 05:11:00,
2015-05-27 01:16:00,68.0,-23.0,28.65,ENE,67,0.0,0.0,0,0.00,,,0.00,Rainwise IP-100,2015-05-27 05:16:00,
2015-05-27 01:21:00,68.0,-23.0,28.65,ENE,67,0.0,0.0,0,0.00,,,0.00,Rainwise IP-100,2015-05-27 05:21:00,
2015-05-27 01:26:00,68.0,-23.0,28.65,ENE,67,0.0,0.0,0,0.00,,,0.00,Rainwise IP-100,2015-05-27 05:26:00,
2015-05-27 01:31:00,68.0,-23.0,28.65,ENE,67,0.0,1.0,0,0.00,,,0.00,Rainwise IP-100,2015-05-27 05:31:00,
2015-05-27 01:37:00,68.0,-23.0,28.65,ENE,67,0.0,1.0,0,0.00,,,0.00,Rainwise IP-100,2015-05-27 05:37:00,
2015-05-27 01:42:00,68.0,-23.0,28.65,ENE,67,0.0,0.0,0,0.00,,,0.00,Rainwise IP-100,2015-05-27 05:42:00,
2015-05-27 01:47:00,68.0,-23.0,28.65,ENE,67,0.0,0.0,0,0.00,,,0.00,Rainwise IP-100,2015-05-27 05:47:00,
2015-05-27 01:52:00,68.0,-23.0,28.65,ENE,67,0.0,0.0,0,0.00,,,0.00,Rainwise IP-100,2015-05-27 05:52:00,
2015-05-27 01:57:00,68.0,-23.0,28.65,ENE,67,0.0,0.0,0,0.00,,,0.00,Rainwise IP-100,2015-05-27 05:57:00,
2015-05-27 02:02:00,68.0,-23.0,28.65,ENE,67,0.0,1.0,0,0.00,,,0.00,Rainwise IP-100,2015-05-27 06:02:00,
2015-05-27 02:07:00,68.0,-23.0,28.65,ENE,67,0.0,1.0,0,0.00,,,0.00,Rainwise IP-100,2015-05-27 06:07:00,
2015-05-27 02:12:00,68.0,-23.0,28.65,ENE,67,0.0,0.0,0,0.00,,,0.00,Rainwise IP-100,2015-05-27 06:12:00,
2015-05-27 02:17:00,68.0,-23.0,28.64,ENE,67,0.0,0.0,0,0.00,,,0.00,Rainwise IP-100,2015-05-27 06:17:00,
2015-05-27 02:22:00,68.0,-23.0,28.64,ENE,67,0.0,0.0,0,0.00,,,0.00,Rainwise IP-100,2015-05-27 06:22:00,
2015-05-27 02:27:00,68.0,-23.0,28.64,NE,45,0.0,0.0,0,0.00,,,0.00,Rainwise IP-100,2015-05-27 06:27:00,
2015-05-27 02:32:00,68.0,-23.0,28.64,NE,45,0.0,0.0,0,0.00,,,0.00,Rainwise IP-100,2015-05-27 06:32:00,
2015-05-27 02:38:00,68.0,-23.0,28.64,NNE,22,0.0,3.0,0,0.00,,,0.00,Rainwise IP-100,2015-05-27 06:38:00,
2015-05-27 02:43:00,68.0,-23.0,28.64,NNE,22,0.0,1.0,0,0.00,,,0.00,Rainwise IP-100,2015-05-27 06:43:00,
2015-05-27 02:48:00,68.0,-23.0,28.64,NNE,22,0.0,1.0,0,0.00,,,0.00,Rainwise IP-100,2015-05-27 06:48:00,
2015-05-27 02:53:00,68.0,-23.0,28.64,NNE,22,0.0,0.0,0,0.00,,,0.00,Rainwise IP-100,2015-05-27 06:53:00,
2015-05-27 03:03:00,68.0,-23.0,28.64,NNE,22,0.0,1.0,0,0.00,,,0.00,Rainwise IP-100,2015-05-27 07:03:00,
2015-05-27 03:08:00,68.0,-23.0,28.64,NNE,22,0.0,0.0,0,0.00,,,0.00,Rainwise IP-100,2015-05-27 07:08:00,
2015-05-27 03:13:00,67.0,-23.0,28.64,NE,45,0.0,1.0,0,0.00,,,0.00,Rainwise IP-100,2015-05-27 07:13:00,
2015-05-27 03:18:00,67.0,-23.0,28.63,NE,45,0.0,2.0,0,0.00,,,0.00,Rainwise IP-100,2015-05-27 07:18:00,
2015-05-27 03:23:00,67.0,-23.0,28.63,NE,45,0.0,2.0,0,0.00,,,0.00,Rainwise IP-100,2015-05-27 07:23:00,
2015-05-27 03:28:00,67.0,-23.0,28.63,NE,45,0.0,1.0,0,0.00,,,0.00,Rainwise IP-100,2015-05-27 07:28:00,
2015-05-27 03:33:00,67.0,-23.0,28.63,NE,45,0.0,0.0,0,0.00,,,0.00,Rainwise IP-100,2015-05-27 07:33:00,
2015-05-27 03:39:00,67.0,-23.0,28.64,NE,45,0.0,2.0,0,0.00,,,0.00,Rainwise IP-100,2015-05-27 07:39:00,
2015-05-27 03:44:00,67.0,-23.0,28.64,NE,45,0.0,1.0,0,0.00,,,0.00,Rainwise IP-100,2015-05-27 07:44:00,
2015-05-27 03:49:00,67.0,-23.0,28.64,NE,45,0.0,0.0,0,0.00,,,0.00,Rainwise IP-100,2015-05-27 07:49:00,
2015-05-27 03:54:00,67.0,-23.0,28.64,NE,45,0.0,1.0,0,0.00,,,0.00,Rainwise IP-100,2015-05-27 07:54:00,
2015-05-27 03:59:00,67.0,-23.0,28.64,NE,45,1.0,1.0,0,0.00,,,0.00,Rainwise IP-100,2015-05-27 07:59:00,
2015-05-27 04:04:00,67.0,-23.0,28.64,NE,45,1.0,2.0,0,0.00,,,0.00,Rainwise IP-100,2015-05-27 08:04:00,
2015-05-27 04:09:00,66.0,-23.0,28.64,NE,45,0.0,2.0,0,0.00,,,0.00,Rainwise IP-100,2015-05-27 08:09:00,
2015-05-27 04:14:00,66.0,-23.0,28.64,NE,45,0.0,0.0,0,0.00,,,0.00,Rainwise IP-100,2015-05-27 08:14:00,
2015-05-27 04:19:00,66.0,-23.0,28.65,NE,45,0.0,2.0,0,0.00,,,0.00,Rainwise IP-100,2015-05-27 08:19:00,
2015-05-27 04:24:00,66.0,-23.0,28.65,NE,45,2.0,2.0,0,0.00,,,0.00,Rainwise IP-100,2015-05-27 08:24:00,